createdAt,value
2022-11-22T00:01:50.673Z,13.18
2022-11-22T00:06:53.412Z,13.32
2022-11-22T00:11:56.172Z,12.65
2022-11-22T00:17:00.260Z,13.07
2022-11-22T00:22:03.434Z,12.88
2022-11-22T00:27:06.175Z,13.13
2022-11-22T00:32:10.374Z,13.45
2022-11-22T00:37:13.237Z,13.68
2022-11-22T00:42:15.958Z,14.15
2022-11-22T00:47:22.666Z,15.10
2022-11-22T00:52:25.489Z,12.77
2022-11-22T00:57:28.240Z,14.77
2022-11-22T01:02:32.360Z,14.55
2022-11-22T01:07:35.170Z,14.02
2022-11-22T01:12:38.203Z,14.45
2022-11-22T01:17:42.502Z,16.15
2022-11-22T01:22:45.457Z,15.52
2022-11-22T01:27:50.963Z,14.10
2022-11-22T01:32:55.216Z,15.18
2022-11-22T01:37:58.013Z,16.15
2022-11-22T01:43:02.020Z,14.73
2022-11-22T01:48:15.742Z,14.85
2022-11-22T01:53:23.231Z,13.88
2022-11-22T01:58:28.074Z,14.60
2022-11-22T02:03:34.397Z,15.52
2022-11-22T02:08:43.291Z,15.25
2022-11-22T02:13:46.861Z,15.00
2022-11-22T02:18:51.096Z,14.93
2022-11-22T02:24:01.660Z,14.52
2022-11-22T02:29:08.952Z,14.68
2022-11-22T02:34:12.571Z,14.90
2022-11-22T02:39:20.883Z,16.15
2022-11-22T02:49:28.665Z,14.13
2022-11-22T02:54:31.608Z,15.05
2022-11-22T02:59:35.712Z,16.52
2022-11-22T03:04:38.445Z,14.38
2022-11-22T03:09:41.211Z,16.38
2022-11-22T03:14:45.341Z,15.65
2022-11-22T03:19:48.138Z,15.20
2022-11-22T03:24:50.898Z,14.73
2022-11-22T03:29:55.070Z,15.18
2022-11-22T03:34:57.869Z,14.20
2022-11-22T03:40:00.609Z,15.02
2022-11-22T03:45:05.069Z,15.55
2022-11-22T03:50:08.266Z,15.60
2022-11-22T03:55:11.035Z,16.70
2022-11-22T04:00:16.227Z,15.85
2022-11-22T04:05:19.654Z,16.25
2022-11-22T04:10:22.808Z,15.55
2022-11-22T04:15:27.676Z,14.77
2022-11-22T04:20:49.007Z,16.27
2022-11-22T04:25:53.275Z,15.98
2022-11-22T04:31:14.721Z,15.63
2022-11-22T04:36:17.738Z,14.52
2022-11-22T04:41:20.527Z,15.75
2022-11-22T04:46:24.585Z,15.23
2022-11-22T04:51:44.743Z,15.38
2022-11-22T04:56:47.473Z,16.15
2022-11-22T05:01:53.268Z,15.80
2022-11-22T05:06:56.724Z,15.02
2022-11-22T05:11:59.585Z,15.93
2022-11-22T05:17:03.737Z,15.95
2022-11-22T05:22:06.439Z,14.63
2022-11-22T05:27:09.204Z,15.43
2022-11-22T05:32:13.287Z,15.85
2022-11-22T05:37:16.010Z,16.85
2022-11-22T05:42:18.869Z,15.43
2022-11-22T05:47:22.957Z,15.70
2022-11-22T05:52:25.886Z,15.40
2022-11-22T05:57:29.141Z,15.20
2022-11-22T06:02:33.640Z,16.38
2022-11-22T06:07:36.519Z,15.77
2022-11-22T06:12:39.572Z,15.25
2022-11-22T06:17:43.844Z,15.95
2022-11-22T06:22:46.653Z,16.65
2022-11-22T06:27:49.488Z,17.70
2022-11-22T06:32:53.727Z,16.52
2022-11-22T06:38:00.646Z,17.90
2022-11-22T06:43:03.826Z,17.63
2022-11-22T06:48:08.381Z,18.27
2022-11-22T06:53:32.440Z,17.45
2022-11-22T06:58:34.435Z,18.27
2022-11-22T07:03:40.228Z,18.35
2022-11-22T07:08:44.918Z,18.35
2022-11-22T07:13:48.255Z,16.98
2022-11-22T07:18:52.655Z,19.17
2022-11-22T07:23:56.692Z,18.17
2022-11-22T07:28:59.482Z,18.33
2022-11-22T07:34:03.709Z,16.80
2022-11-22T07:39:06.462Z,18.60
2022-11-22T07:44:09.208Z,18.63
2022-11-22T07:49:13.572Z,18.60
2022-11-22T07:54:16.592Z,17.85
2022-11-22T07:59:19.558Z,17.70
2022-11-22T08:04:26.621Z,17.25
2022-11-22T08:09:29.651Z,17.50
2022-11-22T08:14:32.936Z,17.60
2022-11-22T08:19:37.188Z,17.83
2022-11-22T08:24:40.016Z,16.92
2022-11-22T08:29:42.882Z,18.35
2022-11-22T08:34:47.542Z,17.70
2022-11-22T08:39:50.394Z,18.13
2022-11-22T08:44:53.229Z,18.23
2022-11-22T08:49:57.451Z,16.95
2022-11-22T08:55:00.344Z,17.85
2022-11-22T09:00:03.722Z,18.30
2022-11-22T09:05:09.207Z,18.08
2022-11-22T09:10:12.068Z,17.92
2022-11-22T09:15:15.765Z,17.02
2022-11-22T09:20:20.109Z,16.10
2022-11-22T09:25:22.980Z,18.15
2022-11-22T09:30:25.831Z,17.88
2022-11-22T09:35:30.055Z,17.45
2022-11-22T09:40:33.069Z,17.35
2022-11-22T09:46:08.166Z,18.02
2022-11-22T09:51:16.293Z,16.85
2022-11-22T09:56:23.903Z,17.45
2022-11-22T10:01:28.963Z,18.67
2022-11-22T10:06:35.919Z,18.00
2022-11-22T10:11:45.434Z,17.92
2022-11-22T10:16:56.330Z,17.80
2022-11-22T10:22:00.573Z,17.00
2022-11-22T10:27:03.910Z,17.30
2022-11-22T10:32:15.689Z,17.58
2022-11-22T10:37:29.159Z,17.42
2022-11-22T10:42:54.098Z,18.63
2022-11-22T10:48:07.251Z,17.55
2022-11-22T10:53:19.818Z,17.00
2022-11-22T10:58:32.814Z,17.30
2022-11-22T11:03:38.944Z,17.27
2022-11-22T11:14:13.993Z,16.05
2022-11-22T11:19:19.606Z,16.77
2022-11-22T11:24:23.766Z,15.95
2022-11-22T11:29:40.801Z,16.85
2022-11-22T11:34:50.308Z,17.50
2022-11-22T11:39:54.616Z,18.65
2022-11-22T11:45:22.452Z,16.23
2022-11-22T11:50:27.733Z,16.48
2022-11-22T11:55:36.525Z,16.27
2022-11-22T12:00:40.934Z,16.80
2022-11-22T12:05:43.840Z,17.02
2022-11-22T12:10:56.952Z,18.30
2022-11-22T12:16:09.732Z,17.10
2022-11-22T12:21:23.838Z,16.58
2022-11-22T12:26:30.082Z,16.05
2022-11-22T12:31:38.188Z,16.23
2022-11-22T12:36:47.834Z,19.83
2022-11-22T12:41:57.060Z,17.23
2022-11-22T12:47:06.326Z,17.65
2022-11-22T12:52:18.295Z,17.13
2022-11-22T12:57:26.852Z,16.40
2022-11-22T13:02:35.548Z,16.08
2022-11-22T13:07:56.594Z,17.45
2022-11-22T13:13:03.626Z,17.05
2022-11-22T13:18:10.751Z,17.45
2022-11-22T13:23:34.400Z,18.17
2022-11-22T13:28:40.835Z,16.70
2022-11-22T13:33:53.738Z,17.33
2022-11-22T13:38:58.754Z,16.77
2022-11-22T13:44:19.369Z,16.58
2022-11-22T13:49:46.632Z,17.55
2022-11-22T13:55:29.825Z,17.13
2022-11-22T14:00:41.391Z,16.55
2022-11-22T14:05:48.787Z,17.65
2022-11-22T14:11:12.110Z,16.95
2022-11-22T14:16:43.716Z,17.33
2022-11-22T14:21:58.773Z,17.45
2022-11-22T14:27:11.304Z,19.08
2022-11-22T14:32:18.652Z,18.77
2022-11-22T14:37:46.868Z,18.70
2022-11-22T14:42:53.834Z,18.33
2022-11-22T14:48:06.937Z,18.88
2022-11-22T14:53:32.703Z,18.55
2022-11-22T14:58:40.167Z,18.98
2022-11-22T15:09:19.191Z,19.83
2022-11-22T15:09:54.097Z,18.90
2022-11-22T15:58:54.768Z,19.55
2022-11-22T16:03:59.897Z,20.48
2022-11-22T16:09:06.366Z,19.55
2022-11-22T16:14:44.089Z,18.83
2022-11-22T16:19:47.171Z,19.70
2022-11-22T16:24:52.876Z,19.10
2022-11-22T16:29:55.745Z,18.60
2022-11-22T16:35:14.652Z,17.80
2022-11-22T16:40:22.938Z,19.00
2022-11-22T16:45:25.802Z,18.45
2022-11-22T16:50:29.645Z,17.83
2022-11-22T16:55:33.890Z,17.60
2022-11-22T17:00:37.896Z,17.98
2022-11-22T17:05:43.155Z,16.00
2022-11-22T17:10:49.684Z,16.95
2022-11-22T17:15:53.177Z,20.90
2022-11-22T17:20:56.019Z,17.30
2022-11-22T17:26:00.518Z,17.55
2022-11-22T17:31:06.782Z,16.70
2022-11-22T17:36:20.439Z,19.27
2022-11-22T17:41:25.136Z,16.90
2022-11-22T17:46:30.110Z,17.83
2022-11-22T17:51:32.969Z,17.98
2022-11-22T17:56:37.573Z,17.45
2022-11-22T18:01:40.432Z,16.30
2022-11-22T18:06:43.173Z,17.52
2022-11-22T18:11:48.444Z,18.20
2022-11-22T18:16:51.275Z,17.38
2022-11-22T18:21:54.068Z,18.23
2022-11-22T18:26:58.207Z,16.55
2022-11-22T18:32:02.249Z,17.85
2022-11-22T18:37:21.518Z,17.13
2022-11-22T18:42:25.933Z,17.40
2022-11-22T18:47:28.760Z,17.25
2022-11-22T18:52:34.529Z,17.48
2022-11-22T18:57:39.102Z,18.10
2022-11-22T19:02:41.968Z,18.05
2022-11-22T19:07:44.783Z,18.92
2022-11-22T19:12:49.039Z,18.90
2022-11-22T19:17:51.932Z,17.75
2022-11-22T19:22:55.226Z,18.25
2022-11-22T19:27:59.719Z,16.35
2022-11-22T19:33:02.586Z,16.98
2022-11-22T19:38:05.429Z,16.83
2022-11-22T19:43:14.995Z,17.10
2022-11-22T19:48:19.918Z,17.58
2022-11-22T19:53:25.863Z,19.15
2022-11-22T19:58:30.294Z,19.20
2022-11-22T20:03:34.082Z,17.10
2022-11-22T20:08:37.750Z,18.45
2022-11-22T20:13:44.757Z,16.98
2022-11-22T20:18:48.257Z,17.02
2022-11-22T20:23:51.287Z,18.42
2022-11-22T20:29:00.536Z,17.30
2022-11-22T20:34:03.677Z,17.60
2022-11-22T20:39:10.502Z,17.02
2022-11-22T20:44:23.102Z,19.13
2022-11-22T20:49:28.251Z,17.38
2022-11-22T20:54:31.524Z,17.55
2022-11-22T20:59:39.763Z,17.48
2022-11-22T21:04:45.259Z,17.90
2022-11-22T21:09:48.297Z,18.75
2022-11-22T21:14:53.836Z,20.08
2022-11-22T21:19:58.989Z,19.17
2022-11-22T21:25:02.041Z,18.00
2022-11-22T21:30:11.016Z,18.33
2022-11-22T21:35:14.265Z,16.77
2022-11-22T21:40:19.507Z,18.35
2022-11-22T21:45:23.713Z,18.27
2022-11-22T21:50:30.036Z,18.65
2022-11-22T21:55:37.085Z,18.30
2022-11-22T22:00:44.947Z,19.45
2022-11-22T22:05:51.169Z,18.65
2022-11-22T22:10:53.951Z,17.77
2022-11-22T22:15:59.529Z,18.27
2022-11-22T22:21:04.201Z,18.73
2022-11-22T22:26:08.600Z,18.27
2022-11-22T22:31:16.756Z,17.63
2022-11-22T22:36:20.283Z,17.05
2022-11-22T22:41:23.196Z,17.88
2022-11-22T22:46:30.429Z,16.83
2022-11-22T22:51:36.112Z,18.35
2022-11-22T22:56:38.838Z,17.08
2022-11-22T23:01:43.241Z,17.75
2022-11-22T23:06:46.026Z,17.80
2022-11-22T23:12:10.465Z,16.25
2022-11-22T23:17:17.727Z,17.45
2022-11-22T23:22:25.800Z,17.10
2022-11-22T23:27:28.958Z,16.77
2022-11-22T23:32:36.394Z,16.13
2022-11-22T23:37:39.276Z,17.87
2022-11-22T23:42:43.872Z,16.83
2022-11-22T23:47:51.321Z,17.08
2022-11-22T23:52:58.357Z,17.13
2022-11-22T23:58:03.335Z,17.02
